Terminal Aerodrome Forecast
Issued by NWS Albuquerque, NM

Home | Current Version | Previous Version | Text Only | Print | Product List | Glossary On
Versions: 1 2 3 4 5 6 7 8 9 10 11 12
822
FTUS45 KABQ 061133
TAFABQ
TAF
KABQ 061133Z 0612/0712 16008KT P6SM OVC130
     FM062030 22016G26KT P6SM BKN120
     FM070100 20011KT P6SM FEW150
     FM070600 17009KT P6SM SCT200=

USA.gov is the U.S. government's official web portal to all federal, state and local government web resources and services.